Latest Weather Observations for Avalon

IDV60801

Issued at 12:35 pm EST Wednesday 30 July 2014 (issued every 30 minutes, with the page automatically refreshed every 10 minutes)

About weather observations | Map of weather stations | Latest weather observations for VIC | Other Formats
Station Details ID: 087113 Name: AVALON AIRPORT Lat: -38.03 Lon: 144.48 Height: 10.6 m
Data from the previous 72 hours. | See also: Recent months at Avalon
Date/Time
EST
Temp
°C
App
Temp
°C
Dew
Point
Rel
Hum
%
Delta-T
°C
Wind Press
QNH
hPa
Press
MSL
hPa
Rain
since 9 am
mm
Dir
 
Spd
km/h
Gust
km/h
Spd
kts
Gust
kts
30/12:30pm 17.2 10.0 10.6 65 3.5 NW 39 52 21 28 1010.2 - 0.0
30/12:00pm 17.0 11.6 10.8 67 3.3 NNW 30 41 16 22 1010.5 1010.5 0.0
30/11:30am 16.7 10.6 10.5 67 3.3 NW 33 48 18 26 1011.2 - 0.0
30/11:00am 16.3 10.2 10.4 68 3.1 NW 33 46 18 25 1011.6 - 0.0
30/10:30am 16.1 10.3 10.8 71 2.8 NNW 32 39 17 21 1011.7 - 0.0
30/10:00am 14.9 9.0 10.3 74 2.4 NNW 32 41 17 22 1011.7 - 0.0
30/09:30am 14.5 9.2 9.7 73 2.5 NNW 28 43 15 23 1011.8 - 0.0
30/09:00am 14.2 8.0 9.4 73 2.5 NNW 32 39 17 21 1011.6 1011.6 0.2
30/08:30am 12.1 7.7 9.1 82 1.5 N 22 26 12 14 1011.5 - 0.2
30/08:00am 11.9 7.1 8.7 81 1.6 N 24 30 13 16 1011.3 - 0.2
30/07:30am 11.6 7.0 8.3 80 1.6 N 22 28 12 15 1011.1 - 0.2
30/07:00am 12.2 7.8 9.0 81 1.6 NNW 22 30 12 16 1011.3 - 0.2
30/06:30am 11.3 7.8 8.7 84 1.3 NNW 17 22 9 12 1011.5 - 0.2
30/06:00am 11.9 7.8 8.6 80 1.6 NW 20 26 11 14 1011.4 1011.4 0.2
30/05:30am 11.4 7.6 9.0 85 1.2 NW 19 26 10 14 1011.3 - 0.2
30/05:00am 10.9 7.9 9.2 89 0.8 NW 15 17 8 9 1011.1 - 0.2
30/04:30am 12.0 8.2 9.9 87 1.1 NW 20 30 11 16 1010.9 - 0.2
30/04:00am 12.1 6.1 10.0 87 1.1 WNW 32 41 17 22 1010.9 - 0.2
30/03:57am 12.1 5.9 10.0 87 1.1 WNW 33 46 18 25 1010.9 - 0.2
30/03:38am 12.3 4.7 10.5 89 0.9 W 41 70 22 38 1011.2 - 0.2
30/03:30am 13.1 5.5 10.6 85 1.3 WNW 41 52 22 28 1011.1 - 0.0
30/03:29am 13.3 6.1 10.7 84 1.4 WNW 39 52 21 28 1011.1 - 0.0
30/03:13am 14.4 8.7 9.8 74 2.4 WNW 30 48 16 26 1010.8 - 0.0
30/03:00am 14.6 8.3 9.8 73 2.5 WNW 33 46 18 25 1010.7 1010.7 0.0
30/02:55am 14.7 9.4 9.9 73 2.5 WNW 28 46 15 25 1010.7 - 0.0
30/02:30am 14.6 9.8 10.2 75 2.3 WNW 26 37 14 20 1010.6 - 0.0
30/02:11am 14.5 8.0 10.5 77 2.1 NW 35 44 19 24 1010.6 - 0.0
30/02:00am 13.7 11.2 11.0 84 1.4 NNW 15 24 8 13 1010.6 - 0.0
30/01:30am 12.9 12.1 11.1 89 0.9 NW 6 9 3 5 1010.7 - 0.0
30/01:00am 13.2 10.4 11.3 88 1.0 WNW 17 24 9 13 1010.6 - 0.0
30/12:30am 13.5 8.1 10.9 84 1.4 WNW 30 41 16 22 1010.7 - 0.0
30/12:00am 13.8 10.0 11.3 85 1.3 NNW 22 35 12 19 1010.5 1010.5 0.0
 
Date/Time
EST
Temp
°C
App
Temp
°C
Dew
Point
Rel
Hum
%
Delta-T
°C
Wind Press
QNH
hPa
Press
MSL
hPa
Rain
since 9 am
mm
Dir
 
Spd
km/h
Gust
km/h
Spd
kts
Gust
kts
29/11:30pm 13.7 10.5 11.2 85 1.3 WNW 19 28 10 15 1010.3 - 0.0
29/11:00pm 14.8 9.6 10.4 75 2.3 NW 28 46 15 25 1009.9 - 0.0
29/10:41pm 15.2 8.7 10.4 73 2.5 NW 35 44 19 24 1009.7 - 0.0
29/10:30pm 14.6 12.4 10.8 78 2.0 WNW 13 20 7 11 1009.6 - 0.0
29/10:00pm 15.0 11.4 10.4 74 2.4 WNW 20 30 11 16 1009.6 - 0.0
29/09:30pm 15.2 10.7 10.2 72 2.6 NNW 24 32 13 17 1009.0 - 0.0
29/09:00pm 15.2 10.0 10.4 73 2.5 NNW 28 39 15 21 1008.8 1008.8 0.0
29/08:30pm 15.1 9.1 10.7 75 2.3 NNW 33 43 18 23 1008.5 - 0.0
29/08:00pm 15.5 9.5 10.1 70 2.8 NW 32 50 17 27 1008.3 - 0.0
29/07:45pm 15.7 10.6 10.5 71 2.7 NW 28 50 15 27 1008.5 - 0.0
29/07:30pm 15.3 10.6 10.5 73 2.5 NW 26 39 14 21 1008.6 - 0.0
29/07:04pm 15.7 9.2 10.5 71 2.7 NNW 35 54 19 29 1007.9 - 0.0
29/07:00pm 15.5 9.4 10.5 72 2.6 NNW 33 43 18 23 1008.0 - 0.0
29/06:30pm 15.6 8.6 9.9 69 3.0 NW 37 52 20 28 1007.4 - 0.0
29/06:00pm 15.3 8.3 10.1 71 2.7 NNW 37 56 20 30 1006.8 1006.8 0.0
29/05:31pm 15.7 8.3 10.0 69 3.0 NW 39 59 21 32 1006.5 - 0.0
29/05:30pm 15.5 8.2 10.1 70 2.8 NW 39 54 21 29 1006.5 - 0.0
29/05:00pm 14.5 8.6 11.1 80 1.8 NNW 33 44 18 24 1006.4 - 0.0
29/04:30pm 15.6 7.5 10.8 73 2.5 NW 44 65 24 35 1006.4 - 0.0
29/04:23pm 15.8 7.3 10.8 72 2.7 NW 46 65 25 35 1006.5 - 0.0
29/04:00pm 16.5 8.7 9.9 65 3.5 NW 41 56 22 30 1006.1 - 0.0
29/03:36pm 16.6 9.2 10.0 65 3.5 NNW 39 57 21 31 1006.1 - 0.0
29/03:30pm 16.5 9.1 9.7 64 3.6 NNW 39 54 21 29 1006.0 - 0.0
29/03:00pm 16.4 7.9 9.3 63 3.7 NNW 44 61 24 33 1005.6 1005.6 0.0
29/02:30pm 16.6 7.5 9.8 64 3.6 NNW 48 67 26 36 1005.7 - 0.0
29/02:00pm 16.5 8.0 9.4 63 3.7 NNW 44 69 24 37 1005.6 - 0.0
29/01:52pm 16.7 8.9 9.6 63 3.7 NNW 41 59 22 32 1005.5 - 0.0
29/01:30pm 16.1 7.8 9.3 64 3.5 NNW 43 57 23 31 1005.8 - 0.0
29/01:01pm 16.5 9.4 9.7 64 3.6 NNW 37 56 20 30 1005.8 - 0.0
29/01:00pm 16.4 8.9 9.6 64 3.5 NNW 39 56 21 30 1005.9 - 0.0
29/12:30pm 15.8 9.1 9.5 66 3.3 NNW 35 52 19 28 1006.8 - 0.0
29/12:00pm 16.0 9.2 9.4 65 3.4 NNW 35 50 19 27 1007.4 1007.4 0.0
29/11:46am 15.7 9.4 8.9 64 3.5 N 32 61 17 33 1007.6 - 0.0
29/11:30am 15.7 9.4 9.1 65 3.4 N 32 46 17 25 1007.8 - 0.0
29/11:00am 16.0 8.3 8.7 62 3.7 NNW 39 57 21 31 1007.7 - 0.0
29/10:46am 15.6 10.0 8.6 63 3.6 N 28 69 15 37 1008.4 - 0.0
29/10:30am 15.2 10.7 8.7 65 3.3 N 22 32 12 17 1008.2 - 0.0
29/10:00am 15.4 9.8 8.9 65 3.3 NNW 28 48 15 26 1007.7 - 0.0
29/09:52am 14.7 8.1 8.6 67 3.1 N 33 52 18 28 1007.1 - 0.0
29/09:30am 14.6 6.8 8.3 66 3.2 N 39 52 21 28 1007.1 - 0.0
29/09:00am 14.3 6.8 8.0 66 3.1 N 37 48 20 26 1007.7 1007.7 0.0
29/08:30am 13.6 6.8 7.8 68 2.9 N 33 46 18 25 1007.9 - 0.0
29/08:00am 13.1 7.6 7.5 69 2.7 N 26 33 14 18 1008.7 - 0.0
29/07:30am 13.1 8.7 7.5 69 2.7 N 20 33 11 18 1008.7 - 0.0
29/07:00am 12.5 5.8 7.2 70 2.6 NNW 32 46 17 25 1007.5 - 0.0
29/06:30am 12.6 5.9 7.3 70 2.6 NNW 32 44 17 24 1007.4 - 0.0
29/06:00am 12.5 5.8 7.4 71 2.5 NNW 32 43 17 23 1007.5 1007.5 0.0
29/05:32am 12.4 5.1 7.3 71 2.5 NNW 35 56 19 30 1007.1 - 0.0
29/05:30am 12.4 5.1 7.3 71 2.5 NNW 35 50 19 27 1007.2 - 0.0
29/05:00am 12.4 6.5 7.3 71 2.5 NNW 28 43 15 23 1007.6 - 0.0
29/04:30am 12.5 6.2 7.4 71 2.5 NNW 30 43 16 23 1007.7 - 0.0
29/04:00am 12.0 7.6 7.5 74 2.2 N 20 35 11 19 1008.0 - 0.0
29/03:30am 11.9 7.6 7.8 76 2.0 N 20 28 11 15 1008.4 - 0.0
29/03:00am 12.1 6.2 7.6 74 2.2 N 28 33 15 18 1008.3 1008.3 0.0
29/02:30am 12.6 6.4 7.7 72 2.4 N 30 37 16 20 1008.8 - 0.0
29/02:00am 12.5 6.6 7.6 72 2.4 N 28 35 15 19 1009.5 - 0.0
29/01:30am 12.4 7.3 7.5 72 2.4 N 24 37 13 20 1009.9 - 0.0
29/01:00am 12.3 7.5 7.2 71 2.5 N 22 30 12 16 1010.2 - 0.0
29/12:30am 12.3 7.5 7.2 71 2.5 N 22 28 12 15 1010.4 - 0.0
29/12:00am 12.6 7.4 7.3 70 2.6 N 24 32 13 17 1010.9 1010.9 0.0
 
Date/Time
EST
Temp
°C
App
Temp
°C
Dew
Point
Rel
Hum
%
Delta-T
°C
Wind Press
QNH
hPa
Press
MSL
hPa
Rain
since 9 am
mm
Dir
 
Spd
km/h
Gust
km/h
Spd
kts
Gust
kts
28/11:30pm 12.8 6.9 7.3 69 2.7 NNW 28 35 15 19 1011.2 - 0.0
28/11:00pm 13.0 6.6 7.0 67 2.9 NNW 30 37 16 20 1011.5 - 0.0
28/10:30pm 13.2 6.9 7.2 67 2.9 NNW 30 39 16 21 1011.7 - 0.0
28/10:00pm 13.2 6.9 7.2 67 2.9 NNW 30 37 16 20 1011.6 - 0.0
28/09:30pm 13.4 7.5 7.4 67 2.9 NNW 28 39 15 21 1011.6 - 0.0
28/09:26pm 13.7 7.8 7.7 67 3.0 NNW 28 39 15 21 1011.6 - 0.0
28/09:00pm 10.7 7.2 7.2 79 1.7 NNE 15 20 8 11 1011.7 1011.7 0.0
28/08:30pm 12.8 9.0 7.7 71 2.5 N 17 28 9 15 1011.7 - 0.0
28/08:00pm 13.3 9.0 7.7 69 2.8 N 20 30 11 16 1011.7 - 0.0
28/07:30pm 11.2 7.6 6.9 75 2.0 NNE 15 17 8 9 1011.7 - 0.0
28/07:00pm 12.7 8.4 7.2 69 2.7 NNE 19 24 10 13 1011.6 - 0.0
28/06:30pm 11.7 8.6 7.2 74 2.2 NE 13 17 7 9 1011.7 - 0.0
28/06:00pm 13.4 9.9 7.4 67 2.9 NNE 15 20 8 11 1011.5 1011.5 0.0
28/05:30pm 14.8 10.1 7.6 62 3.6 N 22 30 12 16 1011.0 - 0.0
28/05:00pm 15.9 9.7 7.7 58 4.1 NNW 30 39 16 21 1011.1 - 0.0
28/04:30pm 16.8 9.7 8.0 56 4.5 NW 35 44 19 24 1011.6 - 0.0
28/04:00pm 16.6 10.5 8.3 58 4.2 NW 30 43 16 23 1011.5 - 0.0
28/03:30pm 17.1 11.5 8.8 58 4.3 NW 28 39 15 21 1011.7 - 0.0
28/03:00pm 17.6 11.0 7.9 53 4.9 NW 32 39 17 21 1011.4 1011.4 0.0
28/02:30pm 18.0 11.3 8.0 52 5.1 NW 33 43 18 23 1011.3 - 0.0
28/02:00pm 18.6 11.2 8.3 51 5.3 NW 37 50 20 27 1011.6 - 0.0
28/01:30pm 18.6 11.0 7.7 49 5.6 NW 37 46 20 25 1011.8 - 0.0
28/01:00pm 18.9 13.9 8.0 49 5.6 NNW 24 35 13 19 1012.4 - 0.0
28/12:30pm 18.3 13.2 7.7 50 5.4 NNW 24 30 13 16 1013.0 - 0.0
28/12:00pm 17.6 11.7 7.4 51 5.1 NNW 28 35 15 19 1013.6 1013.6 0.0
28/11:30am 17.0 11.1 7.4 53 4.8 NNW 28 37 15 20 1014.1 - 0.0
28/11:00am 15.1 9.1 7.2 59 3.9 N 28 43 15 23 1014.4 - 0.0
28/10:30am 14.3 8.3 6.9 61 3.6 N 28 39 15 21 1014.5 - 0.0
28/10:00am 13.4 7.7 6.5 63 3.3 N 26 35 14 19 1014.7 - 0.0
28/09:30am 12.2 6.0 6.0 66 2.9 N 28 39 15 21 1014.8 - 0.0
28/09:00am 10.7 5.2 5.9 72 2.2 N 24 30 13 16 1015.1 1015.1 0.0
28/08:30am 9.3 3.6 5.1 75 1.9 N 24 32 13 17 1015.1 - 0.0
28/08:00am 9.0 4.1 5.0 76 1.8 N 20 26 11 14 1015.2 - 0.0
28/07:30am 8.6 3.3 4.8 77 1.7 N 22 33 12 18 1015.3 - 0.0
28/07:00am 9.0 2.6 5.0 76 1.8 N 28 39 15 21 1015.3 - 0.0
28/06:30am 9.1 3.9 5.3 77 1.7 N 22 28 12 15 1015.2 - 0.0
28/06:00am 9.6 3.2 5.2 74 2.0 N 28 35 15 19 1015.1 1015.1 0.0
28/05:30am 10.0 4.0 5.2 72 2.2 N 26 33 14 18 1015.0 - 0.0
28/05:00am 10.6 5.4 5.4 70 2.4 N 22 30 12 16 1015.2 - 0.0
28/04:30am 10.2 6.6 5.0 70 2.3 N 13 20 7 11 1015.6 - 0.0
28/04:00am 11.1 6.5 5.4 68 2.6 N 19 20 10 11 1015.6 - 0.0
28/03:30am 10.7 6.5 5.7 71 2.3 NE 17 24 9 13 1016.1 - 0.0
28/03:00am 10.3 5.8 6.1 75 1.9 NNE 19 28 10 15 1016.3 1016.3 0.0
28/02:30am 10.6 3.9 5.8 72 2.2 NNE 30 35 16 19 1016.2 - 0.0
28/02:00am 9.9 4.5 6.2 78 1.7 NNE 24 32 13 17 1016.8 - 0.0
28/01:30am 9.7 4.4 6.6 81 1.4 NNE 24 33 13 18 1017.0 - 0.0
28/01:00am 8.8 3.4 6.4 85 1.1 NNE 24 32 13 17 1017.1 - 0.0
28/12:30am 8.4 3.8 6.5 88 0.9 NNE 20 26 11 14 1017.6 - 0.0
28/12:00am 9.3 4.4 6.7 84 1.2 NNE 22 26 12 14 1018.0 1018.0 0.0
 
Date/Time
EST
Temp
°C
App
Temp
°C
Dew
Point
Rel
Hum
%
Delta-T
°C
Wind Press
QNH
hPa
Press
MSL
hPa
Rain
since 9 am
mm
Dir
 
Spd
km/h
Gust
km/h
Spd
kts
Gust
kts
27/11:30pm 7.9 4.1 5.7 86 1.0 N 15 20 8 11 1018.6 - 0.0
27/11:00pm 9.1 5.1 6.5 84 1.2 NNE 17 22 9 12 1018.7 - 0.0
27/10:30pm 9.5 5.0 7.1 85 1.1 NNE 20 24 11 13 1019.0 - 0.0
27/10:00pm 9.9 5.5 7.2 83 1.3 NNE 20 26 11 14 1019.4 - 0.0
27/09:30pm 9.6 6.1 7.2 85 1.1 N 15 19 8 10 1019.7 - 0.0
27/09:00pm 10.3 5.9 7.4 82 1.4 N 20 26 11 14 1019.6 1019.6 0.0
27/08:30pm 9.7 5.8 7.1 84 1.2 N 17 20 9 11 1019.7 - 0.0
27/08:00pm 10.3 6.0 6.8 79 1.6 NNE 19 24 10 13 1019.8 - 0.0
27/07:30pm 11.5 7.2 7.2 75 2.1 NNE 19 22 10 12 1020.1 - 0.0
27/07:00pm 11.4 7.9 7.1 75 2.1 N 15 17 8 9 1020.2 - 0.0
27/06:30pm 11.9 8.8 7.4 74 2.2 NNE 13 17 7 9 1019.9 - 0.0
27/06:00pm 12.0 8.5 7.1 72 2.3 N 15 19 8 10 1019.8 1019.8 0.0
27/05:30pm 12.7 9.0 7.8 72 2.4 N 17 20 9 11 1019.4 - 0.0
27/05:00pm 13.6 11.1 8.2 70 2.7 N 11 19 6 10 1019.6 - 0.0
27/04:30pm 14.3 10.1 8.3 67 3.0 N 20 24 11 13 1019.7 - 0.0
27/04:00pm 14.6 9.2 7.9 64 3.3 N 26 33 14 18 1020.1 - 0.0
27/03:30pm 15.1 9.2 7.6 61 3.7 NNW 28 39 15 21 1020.2 - 0.0
27/03:00pm 15.1 10.0 7.6 61 3.7 NNW 24 35 13 19 1020.3 1020.3 0.0
27/02:30pm 14.9 9.4 7.7 62 3.6 NW 26 33 14 18 1020.1 - 0.0
27/02:00pm 15.0 8.3 7.3 60 3.8 NW 32 41 17 22 1020.2 - 0.0
27/01:30pm 15.6 9.2 7.1 57 4.2 WNW 30 39 16 21 1020.5 - 0.0
27/01:00pm 16.2 10.5 8.2 59 4.0 NW 28 37 15 20 1021.0 - 0.0

Other Formats:

Comma delimited format used in spreadsheet applications
http://www.bom.gov.au/fwo/IDV60801/IDV60801.94854.axf

JavaScript Object Notation format (JSON) in row-major order
http://www.bom.gov.au/fwo/IDV60801/IDV60801.94854.json